createdAt,value
2019-01-25T00:01:43.096Z,101388.68
2019-01-25T00:04:12.281Z,101391.16
2019-01-25T00:06:41.280Z,101393.22
2019-01-25T00:09:11.783Z,101388.66
2019-01-25T00:11:41.027Z,101394.06
2019-01-25T00:14:10.274Z,101402.41
2019-01-25T00:16:39.754Z,101405.59
2019-01-25T00:19:08.973Z,101404.81
2019-01-25T00:21:38.232Z,101404.81
2019-01-25T00:24:11.655Z,101408.19
2019-01-25T00:26:40.810Z,101411.19
2019-01-25T00:29:12.149Z,101413.25
2019-01-25T00:31:41.265Z,101413.63
2019-01-25T00:34:10.425Z,101416.13
2019-01-25T00:36:39.534Z,101414.06
2019-01-25T00:39:09.442Z,101418.25
2019-01-25T00:41:38.664Z,101410.69
2019-01-25T00:44:09.279Z,101406.94
2019-01-25T00:46:38.366Z,101412.00
2019-01-25T00:49:07.764Z,101412.00
2019-01-25T00:51:36.939Z,101411.50
2019-01-25T00:54:06.796Z,101405.28
2019-01-25T00:56:36.070Z,101413.25
2019-01-25T00:59:05.494Z,101418.56
2019-01-25T01:01:36.765Z,101421.94
2019-01-25T01:04:06.323Z,101430.31
2019-01-25T01:06:35.533Z,101425.56
2019-01-25T01:09:08.082Z,101424.47
2019-01-25T01:11:37.288Z,101426.16
2019-01-25T01:14:06.628Z,101429.94
2019-01-25T01:16:35.830Z,101433.66
2019-01-25T01:19:05.692Z,101441.50
2019-01-25T01:21:38.041Z,101444.44
2019-01-25T01:24:06.928Z,101444.44
2019-01-25T01:26:36.127Z,101452.72
2019-01-25T01:29:05.354Z,101454.88
2019-01-25T01:31:34.493Z,101456.94
2019-01-25T01:34:03.723Z,101456.94
2019-01-25T01:36:33.110Z,101463.19
2019-01-25T01:39:06.433Z,101463.19
2019-01-25T01:41:36.950Z,101466.20
2019-01-25T01:44:06.206Z,101463.08
2019-01-25T01:46:35.368Z,101470.10
2019-01-25T01:49:04.765Z,101470.14
2019-01-25T01:51:33.935Z,101473.08
2019-01-25T01:54:03.078Z,101479.04
2019-01-25T01:56:32.199Z,101476.64
2019-01-25T01:59:02.584Z,101463.56
2019-01-25T02:01:31.824Z,101457.68
2019-01-25T02:04:01.093Z,101455.14
2019-01-25T02:06:30.250Z,101449.34
2019-01-25T02:08:59.358Z,101448.56
2019-01-25T02:11:28.760Z,101441.77
2019-01-25T02:13:57.857Z,101432.31
2019-01-25T02:16:26.919Z,101434.00
2019-01-25T02:18:57.237Z,101432.78
2019-01-25T02:21:28.874Z,101424.00
2019-01-25T02:23:58.000Z,101428.53
2019-01-25T02:26:32.188Z,101430.55
2019-01-25T02:29:02.642Z,101425.81
2019-01-25T02:31:34.166Z,101423.75
2019-01-25T02:34:06.264Z,101426.47
2019-01-25T02:36:35.359Z,101426.47
2019-01-25T02:39:07.106Z,101423.94
2019-01-25T02:41:36.557Z,101422.69
2019-01-25T02:44:07.081Z,101423.53
2019-01-25T02:46:36.219Z,101423.53
2019-01-25T02:49:05.558Z,101412.38
2019-01-25T02:51:34.667Z,101412.38
2019-01-25T02:54:03.863Z,101410.25
2019-01-25T02:56:32.960Z,101415.63
2019-01-25T02:59:02.026Z,101416.16
2019-01-25T03:01:31.122Z,101419.81
2019-01-25T03:04:00.201Z,101421.97
2019-01-25T03:06:29.401Z,101418.66
2019-01-25T03:09:21.015Z,101419.09
2019-01-25T03:11:29.526Z,101419.47
2019-01-25T03:13:58.568Z,101413.53
2019-01-25T03:16:27.685Z,101409.44
2019-01-25T03:18:58.902Z,101410.69
2019-01-25T03:21:27.959Z,101409.38
2019-01-25T03:23:57.186Z,101411.88
2019-01-25T03:26:26.322Z,101412.81
2019-01-25T03:28:56.675Z,101413.28
2019-01-25T03:31:25.889Z,101409.99
2019-01-25T03:33:55.021Z,101413.25
2019-01-25T03:36:24.190Z,101413.25
2019-01-25T03:38:53.335Z,101412.34
2019-01-25T03:41:22.639Z,101413.69
2019-01-25T03:43:51.839Z,101414.15
2019-01-25T03:46:21.012Z,101421.66
2019-01-25T03:48:50.276Z,101413.31
2019-01-25T03:51:19.434Z,101414.03
2019-01-25T03:53:48.842Z,101414.03
2019-01-25T03:56:18.058Z,101417.09
2019-01-25T03:58:47.136Z,101428.50
2019-01-25T04:01:16.364Z,101423.66
2019-01-25T04:03:45.462Z,101426.53
2019-01-25T04:06:14.625Z,101424.50
2019-01-25T04:08:43.888Z,101424.50
2019-01-25T04:11:13.129Z,101426.50
2019-01-25T04:13:42.324Z,101435.25
2019-01-25T04:16:11.569Z,101435.25
2019-01-25T04:18:42.116Z,101441.13
2019-01-25T04:21:11.299Z,101440.31
2019-01-25T04:23:42.359Z,101430.75
2019-01-25T04:26:11.513Z,101421.53
2019-01-25T04:28:42.645Z,101419.91
2019-01-25T04:31:11.901Z,101419.91
2019-01-25T04:33:40.988Z,101421.09
2019-01-25T04:36:10.137Z,101424.06
2019-01-25T04:38:39.223Z,101424.06
2019-01-25T04:41:11.730Z,101427.88
2019-01-25T04:43:39.113Z,101419.09
2019-01-25T04:46:08.197Z,101426.16
2019-01-25T04:48:39.358Z,101427.52
2019-01-25T04:51:09.326Z,101430.34
2019-01-25T04:53:38.698Z,101434.59
2019-01-25T04:56:07.857Z,101437.34
2019-01-25T04:58:37.029Z,101436.84
2019-01-25T05:01:10.783Z,101436.84
2019-01-25T05:03:39.993Z,101438.50
2019-01-25T05:06:09.795Z,101418.72
2019-01-25T05:08:38.951Z,101419.09
2019-01-25T05:11:20.082Z,101419.09
2019-01-25T05:13:47.523Z,101415.84
2019-01-25T05:16:16.865Z,101422.78
2019-01-25T05:18:46.162Z,101422.78
2019-01-25T05:21:24.293Z,101423.28
2019-01-25T05:23:53.400Z,101427.91
2019-01-25T05:26:22.568Z,101426.66
2019-01-25T05:28:51.596Z,101435.81
2019-01-25T05:31:24.670Z,101438.66
2019-01-25T05:33:55.476Z,101438.66
2019-01-25T05:36:25.795Z,101426.19
2019-01-25T05:38:54.835Z,101426.25
2019-01-25T05:41:28.594Z,101434.53
2019-01-25T05:43:56.919Z,101440.72
2019-01-25T05:46:26.007Z,101441.84
2019-01-25T05:48:57.074Z,101441.84
2019-01-25T05:51:33.402Z,101436.63
2019-01-25T05:53:56.898Z,101436.63
2019-01-25T05:56:25.980Z,101448.78
2019-01-25T05:58:56.049Z,101443.69
2019-01-25T06:01:26.482Z,101429.47
2019-01-25T06:03:57.623Z,101430.84
2019-01-25T06:06:31.131Z,101424.03
2019-01-25T06:09:00.251Z,101420.37
2019-01-25T06:11:35.456Z,101420.37
2019-01-25T06:14:01.504Z,101406.24
2019-01-25T06:16:31.543Z,101408.74
2019-01-25T06:19:00.577Z,101401.84
2019-01-25T06:21:29.691Z,101401.84
2019-01-25T06:24:00.053Z,101400.39
2019-01-25T06:26:29.310Z,101400.39
2019-01-25T06:28:58.771Z,101391.09
2019-01-25T06:31:27.829Z,101392.08
2019-01-25T06:34:03.220Z,101409.17
2019-01-25T06:36:27.986Z,101397.92
2019-01-25T06:38:57.168Z,101394.52
2019-01-25T06:41:26.278Z,101391.23
2019-01-25T06:43:55.361Z,101391.23
2019-01-25T06:46:25.778Z,101401.53
2019-01-25T06:48:54.862Z,101415.34
2019-01-25T06:51:25.169Z,101419.20
2019-01-25T06:53:54.323Z,101420.34
2019-01-25T06:59:16.828Z,101417.06
2019-01-25T07:01:58.561Z,101417.91
2019-01-25T07:04:28.870Z,101431.19
2019-01-25T07:06:57.968Z,101435.00
2019-01-25T07:09:27.065Z,101430.84
2019-01-25T07:12:03.328Z,101425.41
2019-01-25T07:14:32.344Z,101422.03
2019-01-25T07:17:02.026Z,101419.03
2019-01-25T07:19:31.066Z,101419.09
2019-01-25T07:22:00.853Z,101419.09
2019-01-25T07:24:30.242Z,101421.19
2019-01-25T07:26:59.897Z,101422.78
2019-01-25T07:29:34.010Z,101412.87
2019-01-25T07:32:04.490Z,101417.50
2019-01-25T07:34:36.033Z,101421.25
2019-01-25T07:37:05.367Z,101421.25
2019-01-25T07:39:34.561Z,101418.66
2019-01-25T07:42:03.787Z,101418.66
2019-01-25T07:44:32.892Z,101434.19
2019-01-25T07:47:02.126Z,101432.09
2019-01-25T07:49:31.329Z,101427.84
2019-01-25T07:52:02.797Z,101433.37
2019-01-25T07:54:31.885Z,101436.66
2019-01-25T07:57:01.140Z,101433.78
2019-01-25T07:59:30.312Z,101433.78
2019-01-25T08:01:59.735Z,101432.50
2019-01-25T08:04:28.852Z,101445.03
2019-01-25T08:07:05.443Z,101443.44
2019-01-25T08:09:36.027Z,101446.22
2019-01-25T08:12:07.522Z,101448.78
2019-01-25T08:14:38.809Z,101449.16
2019-01-25T08:17:09.635Z,101449.16
2019-01-25T08:19:40.778Z,101448.41
2019-01-25T08:22:12.745Z,101450.50
2019-01-25T08:24:42.244Z,101454.13
2019-01-25T08:27:11.426Z,101461.73
2019-01-25T08:29:40.669Z,101471.84
2019-01-25T08:32:10.295Z,101470.95
2019-01-25T08:34:39.425Z,101458.11
2019-01-25T08:37:08.542Z,101450.12
2019-01-25T08:39:37.645Z,101454.79
2019-01-25T08:42:06.756Z,101446.45
2019-01-25T08:44:35.802Z,101443.89
2019-01-25T08:47:05.024Z,101443.89
2019-01-25T08:49:34.351Z,101458.52
2019-01-25T08:52:03.472Z,101458.56
2019-01-25T08:54:34.928Z,101457.34
2019-01-25T08:57:05.643Z,101450.63
2019-01-25T08:59:35.128Z,101440.63
2019-01-25T09:02:04.775Z,101440.63
2019-01-25T09:04:33.797Z,101438.55
2019-01-25T09:07:03.018Z,101433.13
2019-01-25T09:09:32.218Z,101431.49
2019-01-25T09:12:01.398Z,101426.91
2019-01-25T09:14:31.135Z,101419.83
2019-01-25T09:17:01.155Z,101416.47
2019-01-25T09:19:30.240Z,101413.62
2019-01-25T09:22:01.374Z,101411.56
2019-01-25T09:24:32.630Z,101411.56
2019-01-25T09:27:01.764Z,101407.35
2019-01-25T09:29:30.832Z,101411.96
2019-01-25T09:32:01.505Z,101411.54
2019-01-25T09:34:30.583Z,101413.63
2019-01-25T09:37:00.780Z,101411.12
2019-01-25T09:39:31.169Z,101411.16
2019-01-25T09:42:02.556Z,101410.36
2019-01-25T09:44:31.659Z,101408.66
2019-01-25T09:47:01.049Z,101406.58
2019-01-25T09:49:30.155Z,101410.36
2019-01-25T09:51:59.792Z,101396.99
2019-01-25T09:54:29.839Z,101393.64
2019-01-25T09:56:58.841Z,101387.84
2019-01-25T09:59:27.893Z,101382.41
2019-01-25T10:01:58.975Z,101383.64
2019-01-25T10:04:28.043Z,101383.66
2019-01-25T10:06:57.164Z,101391.61
2019-01-25T10:09:26.286Z,101390.37
2019-01-25T10:11:55.438Z,101397.47
2019-01-25T10:14:24.524Z,101394.53
2019-01-25T10:16:55.151Z,101385.36
2019-01-25T10:19:24.402Z,101388.70
2019-01-25T10:21:57.136Z,101388.70
2019-01-25T10:24:26.523Z,101379.06
2019-01-25T10:26:55.582Z,101377.84
2019-01-25T10:29:30.640Z,101377.84
2019-01-25T10:32:00.830Z,101369.88
2019-01-25T10:34:29.881Z,101370.27
2019-01-25T10:36:59.013Z,101373.63
2019-01-25T10:39:29.355Z,101369.87
2019-01-25T10:41:58.474Z,101369.87
2019-01-25T10:44:27.598Z,101359.85
2019-01-25T10:46:59.891Z,101363.98
2019-01-25T10:49:30.373Z,101367.30
2019-01-25T10:52:02.003Z,101367.30
2019-01-25T10:54:31.504Z,101350.16
2019-01-25T10:57:00.752Z,101343.88
2019-01-25T10:59:29.761Z,101335.49
2019-01-25T11:02:00.534Z,101330.08
2019-01-25T11:04:31.713Z,101330.08
2019-01-25T11:07:03.379Z,101321.69
2019-01-25T11:09:32.449Z,101320.05
2019-01-25T11:12:01.658Z,101311.63
2019-01-25T11:14:30.778Z,101309.13
2019-01-25T11:16:59.873Z,101313.29
2019-01-25T11:19:29.071Z,101313.29
2019-01-25T11:21:59.382Z,101309.93
2019-01-25T11:24:28.543Z,101304.89
2019-01-25T11:27:00.403Z,101308.22
2019-01-25T11:29:28.710Z,101301.52
2019-01-25T11:31:57.901Z,101301.52
2019-01-25T11:34:27.209Z,101294.31
2019-01-25T11:36:57.488Z,101295.60
2019-01-25T11:39:26.893Z,101284.33
2019-01-25T11:41:56.274Z,101280.48
2019-01-25T11:44:26.023Z,101271.25
2019-01-25T11:46:55.131Z,101272.55
2019-01-25T11:49:24.274Z,101272.55
2019-01-25T11:51:56.563Z,101269.54
2019-01-25T11:54:28.447Z,101288.35
2019-01-25T11:56:58.881Z,101294.16
2019-01-25T11:59:30.048Z,101280.35
2019-01-25T12:02:06.348Z,101274.92
2019-01-25T12:04:35.981Z,101266.91
2019-01-25T12:07:06.586Z,101264.06
2019-01-25T12:09:35.662Z,101260.23
2019-01-25T12:12:09.053Z,101256.39
2019-01-25T12:14:45.719Z,101254.73
2019-01-25T12:17:14.772Z,101256.40
2019-01-25T12:19:43.942Z,101255.52
2019-01-25T12:22:17.425Z,101250.98
2019-01-25T12:24:49.143Z,101250.98
2019-01-25T12:27:20.169Z,101246.80
2019-01-25T12:29:49.460Z,101247.19
2019-01-25T12:32:20.229Z,101247.64
2019-01-25T12:34:50.738Z,101255.48
2019-01-25T12:37:19.796Z,101252.95
2019-01-25T12:39:51.207Z,101252.95
2019-01-25T12:42:20.465Z,101256.70
2019-01-25T12:44:50.160Z,101252.44
2019-01-25T12:47:19.356Z,101249.97
2019-01-25T12:49:48.452Z,101242.00
2019-01-25T12:52:17.537Z,101242.02
2019-01-25T12:54:46.624Z,101239.08
2019-01-25T12:57:17.938Z,101235.72
2019-01-25T12:59:46.983Z,101232.74
2019-01-25T13:02:17.290Z,101220.70
2019-01-25T13:04:46.333Z,101214.78
2019-01-25T13:07:15.485Z,101208.06
2019-01-25T13:09:44.648Z,101208.06
2019-01-25T13:12:14.059Z,101196.80
2019-01-25T13:14:43.243Z,101192.58
2019-01-25T13:17:12.389Z,101186.67
2019-01-25T13:19:42.608Z,101186.67
2019-01-25T13:22:11.810Z,101187.16
2019-01-25T13:24:43.416Z,101180.06
2019-01-25T13:27:12.719Z,101170.45
2019-01-25T13:29:41.984Z,101160.82
2019-01-25T13:32:14.627Z,101154.93
2019-01-25T13:34:44.401Z,101151.19
2019-01-25T13:37:13.775Z,101141.58
2019-01-25T13:39:46.256Z,101138.63
2019-01-25T13:42:19.847Z,101137.78
2019-01-25T13:44:49.616Z,101128.13
2019-01-25T13:47:21.018Z,101128.17
2019-01-25T13:49:52.302Z,101110.62
2019-01-25T13:52:26.674Z,101110.62
2019-01-25T13:54:57.983Z,101104.23
2019-01-25T13:57:28.197Z,101104.26
2019-01-25T13:59:58.847Z,101107.12
2019-01-25T14:02:34.170Z,101105.48
2019-01-25T14:05:04.119Z,101093.01
2019-01-25T14:07:35.301Z,101095.39
2019-01-25T14:10:05.922Z,101095.83
2019-01-25T14:12:34.950Z,101083.24
2019-01-25T14:15:04.495Z,101084.48
2019-01-25T14:17:34.106Z,101092.04
2019-01-25T14:20:07.063Z,101072.72
2019-01-25T14:22:37.322Z,101076.91
2019-01-25T14:25:07.238Z,101066.02
2019-01-25T14:27:36.823Z,101071.44
2019-01-25T14:30:14.304Z,101069.73
2019-01-25T14:32:45.581Z,101057.95
2019-01-25T14:35:15.093Z,101066.33
2019-01-25T14:37:44.182Z,101068.42
2019-01-25T14:40:13.886Z,101068.42
2019-01-25T14:42:43.146Z,101054.23
2019-01-25T14:45:12.804Z,101054.23
2019-01-25T14:47:42.164Z,101049.52
2019-01-25T14:50:14.279Z,101052.45
2019-01-25T14:52:43.562Z,101052.03
2019-01-25T14:55:14.364Z,101047.84
2019-01-25T14:57:43.515Z,101050.80
2019-01-25T15:00:12.735Z,101050.80
2019-01-25T15:02:41.981Z,101042.81
2019-01-25T15:05:14.802Z,101036.50
2019-01-25T15:07:45.237Z,101033.86
2019-01-25T15:13:37.262Z,101036.38
2019-01-25T15:16:08.676Z,101038.44
2019-01-25T15:18:41.482Z,101035.09
2019-01-25T15:21:10.672Z,101037.64
2019-01-25T15:23:40.487Z,101035.20
2019-01-25T15:26:10.024Z,101028.80
2019-01-25T15:28:39.108Z,101032.55
2019-01-25T15:31:10.467Z,101027.09
2019-01-25T15:33:39.903Z,101027.09
2019-01-25T15:36:09.217Z,101010.27
2019-01-25T15:38:38.612Z,101001.89
2019-01-25T15:41:08.087Z,101001.89
2019-01-25T15:43:37.569Z,100998.53
2019-01-25T15:46:06.767Z,101001.92
2019-01-25T15:48:36.052Z,101001.92
2019-01-25T15:51:07.797Z,100995.19
2019-01-25T15:53:37.855Z,100995.19
2019-01-25T15:56:07.094Z,101003.56
2019-01-25T15:58:36.343Z,101003.56
2019-01-25T16:01:05.637Z,100990.96
2019-01-25T16:03:34.733Z,100990.96
2019-01-25T16:06:06.975Z,100994.28
2019-01-25T16:08:38.678Z,100979.64
2019-01-25T16:11:08.617Z,100980.38
2019-01-25T16:13:39.783Z,100977.06
2019-01-25T16:16:11.631Z,100977.52
2019-01-25T16:18:42.038Z,100983.42
2019-01-25T16:21:11.301Z,100978.28
2019-01-25T16:23:40.333Z,100978.77
2019-01-25T16:26:09.437Z,100983.84
2019-01-25T16:28:38.440Z,100976.19
2019-01-25T16:31:07.629Z,100977.48
2019-01-25T16:33:36.885Z,100995.47
2019-01-25T16:36:11.061Z,100994.25
2019-01-25T16:38:42.334Z,100990.79
2019-01-25T16:41:11.343Z,100989.47
2019-01-25T16:43:40.431Z,100989.98
2019-01-25T16:46:12.088Z,100971.02
2019-01-25T16:48:41.328Z,100969.77
2019-01-25T16:51:10.930Z,100964.24
2019-01-25T16:53:40.549Z,100956.77
2019-01-25T16:56:10.123Z,100956.77
2019-01-25T16:58:40.427Z,100955.82
2019-01-25T17:01:09.658Z,100970.14
2019-01-25T17:03:38.900Z,100968.58
2019-01-25T17:06:08.288Z,100960.02
2019-01-25T17:08:37.378Z,100964.17
2019-01-25T17:11:06.923Z,100959.48
2019-01-25T17:13:36.104Z,100959.48
2019-01-25T17:16:05.353Z,100955.71
2019-01-25T17:18:34.826Z,100944.05
2019-01-25T17:21:04.237Z,100946.91
2019-01-25T17:23:33.555Z,100946.91
2019-01-25T17:26:02.768Z,100934.25
2019-01-25T17:28:31.914Z,100932.99
2019-01-25T17:31:01.042Z,100941.00
2019-01-25T17:33:30.303Z,100936.30
2019-01-25T17:36:00.488Z,100935.47
2019-01-25T17:38:29.604Z,100930.55
2019-01-25T17:41:00.100Z,100934.71
2019-01-25T17:43:29.693Z,100934.71
2019-01-25T17:45:58.813Z,100924.15
2019-01-25T17:48:27.982Z,100928.03
2019-01-25T17:50:59.114Z,100924.53
2019-01-25T17:53:28.721Z,100923.69
2019-01-25T17:55:59.820Z,100925.30
2019-01-25T17:58:28.974Z,100921.59
2019-01-25T18:00:58.613Z,100921.59
2019-01-25T18:03:27.867Z,100910.15
2019-01-25T18:05:57.118Z,100912.63
2019-01-25T18:08:28.569Z,100907.22
2019-01-25T18:11:01.971Z,100899.62
2019-01-25T18:13:33.613Z,100897.52
2019-01-25T18:16:11.845Z,100897.52
2019-01-25T18:18:41.658Z,100903.28
2019-01-25T18:21:11.819Z,100903.66
2019-01-25T18:23:44.977Z,100899.08
2019-01-25T18:26:22.729Z,100899.08
2019-01-25T18:29:23.225Z,100890.35
2019-01-25T18:31:52.486Z,100896.95
2019-01-25T18:34:24.021Z,100894.30
2019-01-25T18:36:54.557Z,100888.47
2019-01-25T18:39:25.368Z,100888.47
2019-01-25T18:41:57.270Z,100891.11
2019-01-25T18:44:26.886Z,100885.31
2019-01-25T18:46:56.805Z,100886.40
2019-01-25T18:49:25.951Z,100888.03
2019-01-25T18:51:55.072Z,100884.43
2019-01-25T18:54:25.933Z,100884.43
2019-01-25T18:56:55.711Z,100876.23
2019-01-25T18:59:24.868Z,100876.20
2019-01-25T19:01:53.944Z,100876.57
2019-01-25T19:04:23.090Z,100870.18
2019-01-25T19:06:52.229Z,100864.68
2019-01-25T19:09:21.403Z,100870.47
2019-01-25T19:11:50.597Z,100863.73
2019-01-25T19:14:19.835Z,100860.39
2019-01-25T19:16:49.022Z,100863.73
2019-01-25T19:19:18.041Z,100863.17
2019-01-25T19:21:47.147Z,100863.17
2019-01-25T19:24:16.278Z,100856.33
2019-01-25T19:26:45.574Z,100857.59
2019-01-25T19:29:14.707Z,100860.56
2019-01-25T19:31:43.979Z,100856.27
2019-01-25T19:34:13.058Z,100855.85
2019-01-25T19:36:42.179Z,100861.68
2019-01-25T19:39:13.402Z,100856.22
2019-01-25T19:41:42.625Z,100853.98
2019-01-25T19:44:11.785Z,100846.94
2019-01-25T19:46:43.120Z,100846.94
2019-01-25T19:49:12.685Z,100847.42
2019-01-25T19:51:41.771Z,100840.71
2019-01-25T19:54:11.078Z,100834.88
2019-01-25T19:56:40.272Z,100839.44
2019-01-25T19:59:09.415Z,100846.69
2019-01-25T20:01:38.690Z,100846.02
2019-01-25T20:04:07.934Z,100846.83
2019-01-25T20:06:37.450Z,100845.57
2019-01-25T20:09:11.162Z,100845.57
2019-01-25T20:11:40.330Z,100839.04
2019-01-25T20:14:09.439Z,100841.45
2019-01-25T20:16:38.548Z,100839.26
2019-01-25T20:19:07.623Z,100841.41
2019-01-25T20:21:36.684Z,100834.87
2019-01-25T20:24:05.862Z,100834.87
2019-01-25T20:26:35.004Z,100844.40
2019-01-25T20:29:04.162Z,100842.55
2019-01-25T20:31:33.319Z,100843.53
2019-01-25T20:34:02.584Z,100845.98
2019-01-25T20:36:31.700Z,100845.22
2019-01-25T20:39:00.866Z,100845.45
2019-01-25T20:41:30.369Z,100843.66
2019-01-25T20:43:59.526Z,100844.56
2019-01-25T20:46:28.599Z,100841.20
2019-01-25T20:48:57.701Z,100850.98
2019-01-25T20:51:28.053Z,100843.06
2019-01-25T20:53:57.147Z,100851.95
2019-01-25T20:56:26.149Z,100854.42
2019-01-25T20:58:55.159Z,100854.42
2019-01-25T21:01:24.278Z,100849.30
2019-01-25T21:03:53.403Z,100854.83
2019-01-25T21:06:22.602Z,100847.45
2019-01-25T21:08:51.604Z,100850.73
2019-01-25T21:11:20.798Z,100842.78
2019-01-25T21:13:49.985Z,100849.00
2019-01-25T21:16:19.019Z,100837.94
2019-01-25T21:18:48.199Z,100842.68
2019-01-25T21:21:17.280Z,100846.47
2019-01-25T21:23:46.368Z,100840.48
2019-01-25T21:26:15.669Z,100836.17
2019-01-25T21:28:44.663Z,100840.16
2019-01-25T21:31:13.693Z,100833.75
2019-01-25T21:33:43.751Z,100824.69
2019-01-25T21:36:12.984Z,100824.69
2019-01-25T21:38:42.139Z,100815.98
2019-01-25T21:41:11.238Z,100825.98
2019-01-25T21:43:40.380Z,100819.09
2019-01-25T21:46:09.493Z,100811.93
2019-01-25T21:48:38.634Z,100815.01
2019-01-25T21:51:07.931Z,100805.12
2019-01-25T21:53:36.990Z,100802.86
2019-01-25T21:56:06.142Z,100804.94
2019-01-25T21:58:35.165Z,100804.94
2019-01-25T22:01:04.443Z,100804.55
2019-01-25T22:03:33.643Z,100809.69
2019-01-25T22:06:02.806Z,100795.76
2019-01-25T22:08:31.856Z,100792.69
2019-01-25T22:11:01.629Z,100802.12
2019-01-25T22:13:30.761Z,100802.14
2019-01-25T22:15:59.828Z,100811.55
2019-01-25T22:18:28.920Z,100812.70
2019-01-25T22:20:58.025Z,100821.61
2019-01-25T22:23:27.028Z,100817.47
2019-01-25T22:25:55.996Z,100817.47
2019-01-25T22:28:25.034Z,100817.22
2019-01-25T22:30:54.143Z,100817.22
2019-01-25T22:33:23.144Z,100822.15
2019-01-25T22:35:52.175Z,100821.78
2019-01-25T22:38:21.183Z,100819.20
2019-01-25T22:40:50.359Z,100824.48
2019-01-25T22:43:19.466Z,100831.91
2019-01-25T22:45:48.469Z,100834.84
2019-01-25T22:48:17.600Z,100834.73
2019-01-25T22:50:46.704Z,100834.73
2019-01-25T22:53:15.782Z,100840.45
2019-01-25T22:55:44.844Z,100840.45
2019-01-25T22:58:13.949Z,100829.70
2019-01-25T23:01:12.226Z,100827.84
2019-01-25T23:04:11.961Z,100826.58
2019-01-25T23:06:56.309Z,100826.58
2019-01-25T23:09:35.210Z,100826.20
2019-01-25T23:12:05.934Z,100815.61
2019-01-25T23:14:35.111Z,100821.54
2019-01-25T23:17:04.577Z,100817.06
2019-01-25T23:19:34.030Z,100817.06
2019-01-25T23:22:03.198Z,100823.70
2019-01-25T23:24:32.277Z,100818.97
2019-01-25T23:27:01.443Z,100818.97
2019-01-25T23:29:30.478Z,100800.53
2019-01-25T23:31:59.626Z,100800.53
2019-01-25T23:34:28.675Z,100796.58
2019-01-25T23:36:57.770Z,100796.58
2019-01-25T23:39:26.827Z,100804.02
2019-01-25T23:41:55.935Z,100801.25
2019-01-25T23:44:25.015Z,100802.41
2019-01-25T23:46:54.100Z,100801.73
2019-01-25T23:49:23.131Z,100797.62
2019-01-25T23:51:52.231Z,100796.95
2019-01-25T23:54:21.226Z,100799.05
2019-01-25T23:56:50.279Z,100795.14
2019-01-25T23:59:19.257Z,100791.79
